map of KER home
KER - Airport
Location
City:  Kerman, Kerman, Iran
ICAO:OIKK
IATA:KER

Details
Type:Airport (Aerodrome, Airfield)
Use:Public/Civil
Latitude:3016'28"N (30.274444)
Longitude:5657'04"E (56.951111)
Datum:WGS 1984
Elevation:5741 ft (1750 m)
Variation:2.96E (WMM2015 magnetic declination)
0.05 annual change
Runways:2
Longest:12620 × 148 ft (3847 × 45 m), paved

Time
Time Zone:UTC+3:30 (DST+4:30)
Local Time:

Weather
METAR:OIKK 181300Z 34010KT 9999 TS SCT035CB SCT040 BKN090 20/M03 Q1021 A3016
TAF:OIKK 181130Z 1812/1918 02005MPS 8000 FEW035CB SCT040 BKN100
TEMPO 1814/1818 5000 TSRA SCT035CB SCT040 BKN090
BECMG 1819/1820 11003MPS FEW040 SCT090
TEMPO 1900/1904 4000 BR
BECMG 1911/1912 FEW035CB SCT040 BKN100

Related Locations
Nearby:
Farthest:IPC: 11591 mi / 18654 km
Easter Island (Isla de Pascua, Rapa Nui) [Mataveri Intl], VS, CL

Find:

   beyond  
but within

Other Information
Maps:
NOTAMs:
Links:
Sources:

  
  • flag of Iran
  

Sectional Chart

Flight Planning
at skyvector.com

Satellite Image

Google Maps Satellite view

 

Copyright © 2004-2018 Karl L. Swartz. All rights reserved.
The Great Circle Mapper name and logo are trademarks of the Great Circle Mapper.
All other trademarks mentioned herein belong to their respective owners.
Please see credits for attibutions and further copyright information.

  Follow gcmap on Facebook Follow gcmap on Twitter Follow gcmap on Google+ GCmap on LinkedIn

hCard Microformat

Geo Microformat